Latest Weather Observations for Oenpelli Airport

IDD60801

Issued at 11:05 am CST Saturday 1 November 2014 (issued every 30 minutes, with the page automatically refreshed every 10 minutes)

About weather observations | Map of weather stations | Latest weather observations for NT | Other Formats
Station Details ID: 014310 Name: OENPELLI AIRPORT Lat: -12.33 Lon: 133.01 Height: 7.5 m
Data from the previous 72 hours. | See also: Recent months for locations in Northern Territory
Date/Time
CST
Temp
°C
App
Temp
°C
Dew
Point
Rel
Hum
%
Delta-T
°C
Wind Press
QNH
hPa
Press
MSL
hPa
Rain
since 9 am
mm
Dir
 
Spd
km/h
Gust
km/h
Spd
kts
Gust
kts
01/11:00am 32.4 33.2 15.8 36 10.4 ENE 6 13 3 7 1011.8 1011.7 0.0
01/10:30am 31.8 32.8 17.7 43 9.0 NNE 9 17 5 9 1012.4 1012.3 0.0
01/10:00am 31.2 33.2 19.2 48 7.8 NNE 7 13 4 7 1012.8 1012.7 0.0
01/09:30am 29.9 32.4 19.9 55 6.6 NNE 6 13 3 7 1013.1 1013.0 0.0
01/09:00am 29.2 31.9 20.6 59 5.7 NE 7 13 4 7 1013.1 1013.0 0.0
01/08:30am 28.6 31.0 20.9 63 5.1 NNE 9 13 5 7 1013.0 1012.9 0.0
01/08:00am 27.4 30.3 21.0 68 4.2 NE 7 11 4 6 1012.6 1012.5 0.0
01/07:30am 26.1 28.6 20.2 70 3.8 WNW 7 11 4 6 1012.2 1012.1 0.0
01/07:00am 24.4 26.8 19.7 75 3.0 WNW 6 7 3 4 1011.6 1011.5 0.0
01/06:30am 22.3 24.4 18.9 81 2.1 WNW 6 7 3 4 1011.2 1011.1 0.0
01/06:00am 22.1 24.0 18.5 80 2.3 NE 6 9 3 5 1010.7 1010.6 0.0
01/05:30am 22.3 24.7 18.7 80 2.3 NE 4 6 2 3 1010.2 1010.1 0.0
01/05:00am 22.6 24.8 18.4 77 2.6 ENE 4 4 2 2 1009.8 1009.7 0.0
01/04:30am 23.2 25.3 18.9 77 2.7 ENE 6 7 3 4 1009.5 1009.4 0.0
01/04:00am 23.3 25.1 18.4 74 3.1 ENE 6 6 3 3 1009.1 1009.0 0.0
01/03:30am 24.4 26.8 18.8 71 3.6 ENE 4 6 2 3 1008.9 1008.8 0.0
01/03:00am 24.2 27.4 18.8 72 3.4 CALM 0 0 0 0 1008.8 1008.7 0.0
01/02:30am 24.4 26.6 18.3 69 3.9 E 4 6 2 3 1008.8 1008.7 0.0
01/02:00am 24.9 27.2 18.6 68 4.0 E 4 6 2 3 1009.0 1008.9 0.0
01/01:30am 24.9 27.0 18.1 66 4.3 E 4 6 2 3 1009.3 1009.2 0.0
01/01:00am 25.0 27.1 18.0 65 4.4 E 4 6 2 3 1009.4 1009.3 0.0
01/12:30am 25.2 27.0 18.2 65 4.4 E 6 7 3 4 1009.6 1009.5 0.0
01/12:00am 25.5 27.1 17.9 63 4.8 ENE 6 6 3 3 1009.8 1009.7 0.0
 
Date/Time
CST
Temp
°C
App
Temp
°C
Dew
Point
Rel
Hum
%
Delta-T
°C
Wind Press
QNH
hPa
Press
MSL
hPa
Rain
since 9 am
mm
Dir
 
Spd
km/h
Gust
km/h
Spd
kts
Gust
kts
31/11:30pm 25.9 27.6 18.1 62 4.9 ENE 6 7 3 4 1010.1 1010.0 0.0
31/11:00pm 26.2 28.7 18.1 61 5.1 NE 2 4 1 2 1010.2 1010.1 0.0
31/10:30pm 26.0 29.3 20.8 73 3.4 NNE 4 4 2 2 1010.3 1010.2 0.0
31/10:00pm 26.8 30.3 21.1 71 3.8 N 4 6 2 3 1010.2 1010.1 0.0
31/09:30pm 26.6 29.9 20.7 70 3.9 N 4 6 2 3 1009.9 1009.8 0.0
31/09:00pm 27.2 30.0 20.5 67 4.4 NNW 6 9 3 5 1009.5 1009.4 0.0
31/08:30pm 28.2 30.4 20.5 63 5.1 NNW 9 15 5 8 1009.1 1009.0 0.0
31/08:00pm 29.0 31.0 20.7 61 5.5 NNW 11 17 6 9 1008.7 1008.6 0.0
31/07:30pm 29.5 31.8 20.6 58 5.9 NW 9 13 5 7 1008.3 1008.2 0.0
31/07:00pm 30.1 32.0 20.6 56 6.3 WNW 11 19 6 10 1008.1 1008.0 0.0
31/06:30pm 30.8 31.3 20.1 53 7.1 WNW 17 24 9 13 1007.6 1007.5 0.0
31/06:00pm 32.5 32.3 19.4 46 8.6 WNW 19 28 10 15 1007.2 1007.1 0.0
31/05:30pm 34.0 33.1 18.1 39 10.3 WNW 20 32 11 17 1006.8 1006.7 0.0
31/05:00pm 37.5 35.0 12.2 22 15.3 NNE 17 32 9 17 1006.6 1006.5 0.0
31/04:30pm 37.3 36.4 10.6 20 15.8 NE 6 13 3 7 1006.2 1006.1 0.0
31/04:00pm 37.2 36.3 11.2 21 15.4 ENE 7 15 4 8 1006.4 1006.3 0.0
31/03:30pm 37.4 35.6 10.7 20 15.8 NNE 11 19 6 10 1006.7 1006.6 0.0
31/03:00pm 37.6 36.2 12.3 22 15.3 ENE 11 22 6 12 1007.0 1006.9 0.0
31/02:30pm 36.8 35.2 12.9 24 14.6 NNE 13 20 7 11 1007.2 1007.1 0.0
31/02:00pm 36.1 35.3 13.0 25 14.0 NE 9 17 5 9 1007.6 1007.5 0.0
31/01:30pm 35.9 36.0 14.0 27 13.5 NNE 6 19 3 10 1008.1 1008.0 0.0
31/01:00pm 34.9 33.9 14.7 29 12.5 ENE 13 24 7 13 1008.8 1008.7 0.0
31/12:30pm 34.5 34.4 15.9 33 11.7 NNE 11 20 6 11 1009.4 1009.3 0.0
31/12:00pm 33.5 34.1 15.9 34 11.1 E 7 15 4 8 1010.1 1010.0 0.0
31/11:30am 33.1 34.3 17.3 39 10.1 E 7 15 4 8 1010.7 1010.6 0.0
31/11:00am 32.2 33.9 18.0 42 9.1 NE 6 15 3 8 1011.2 1011.1 0.0
31/10:30am 31.1 32.6 18.1 46 8.4 NNW 7 19 4 10 1011.7 1011.6 0.0
31/10:00am 30.7 32.2 18.8 49 7.7 ENE 9 19 5 10 1012.0 1011.9 0.0
31/09:30am 29.3 31.4 19.0 53 6.7 N 6 11 3 6 1012.2 1012.1 0.0
31/09:00am 28.9 30.4 19.8 58 6.0 NNE 11 20 6 11 1012.3 1012.2 0.0
31/08:30am 27.9 31.2 19.9 61 5.2 N 2 7 1 4 1012.2 1012.1 0.0
31/08:00am 26.2 29.3 19.6 67 4.3 NNW 2 7 1 4 1011.9 1011.8 0.0
31/07:30am 24.5 27.0 19.1 72 3.4 W 4 4 2 2 1011.4 1011.3 0.0
31/07:00am 22.1 25.1 18.5 80 2.3 CALM 0 0 0 0 1011.0 1010.9 0.0
31/06:30am 20.0 22.2 16.4 80 2.2 CALM 0 9 0 5 1010.5 1010.4 0.0
31/06:00am 20.4 23.0 17.6 84 1.7 CALM 0 7 0 4 1010.3 1010.2 0.0
31/05:30am 20.4 22.8 17.0 81 2.1 CALM 0 0 0 0 1010.0 1009.9 0.0
31/05:00am 21.4 24.0 17.4 78 2.5 CALM 0 0 0 0 1009.7 1009.6 0.0
31/04:30am 21.3 23.8 17.3 78 2.5 CALM 0 0 0 0 1009.4 1009.3 0.0
31/04:00am 20.8 23.2 17.0 79 2.3 CALM 0 0 0 0 1009.1 1009.0 0.0
31/03:30am 20.9 23.0 16.3 75 2.8 CALM 0 0 0 0 1008.9 1008.8 0.0
31/03:00am 23.2 26.1 18.1 73 3.2 CALM 0 0 0 0 1008.9 1008.8 0.0
31/02:30am 24.1 26.8 18.7 72 3.4 NNE 2 4 1 2 1008.9 1008.8 0.0
31/02:00am 24.7 27.2 19.1 71 3.6 E 4 6 2 3 1009.1 1009.0 0.0
31/01:30am 24.9 27.5 19.3 71 3.6 ENE 4 6 2 3 1009.2 1009.1 0.0
31/01:00am 25.1 27.7 19.2 70 3.8 E 4 6 2 3 1009.5 1009.4 0.0
31/12:30am 24.9 27.4 19.1 70 3.7 NE 4 6 2 3 1009.4 1009.3 0.0
31/12:00am 25.0 27.0 18.7 68 4.0 NE 6 7 3 4 1009.8 1009.7 0.0
 
Date/Time
CST
Temp
°C
App
Temp
°C
Dew
Point
Rel
Hum
%
Delta-T
°C
Wind Press
QNH
hPa
Press
MSL
hPa
Rain
since 9 am
mm
Dir
 
Spd
km/h
Gust
km/h
Spd
kts
Gust
kts
30/11:30pm 25.2 27.3 18.2 65 4.4 ENE 4 6 2 3 1010.0 1009.9 0.0
30/11:00pm 25.8 27.9 18.0 62 4.9 NE 4 6 2 3 1010.1 1010.0 0.0
30/10:30pm 26.2 28.1 17.6 59 5.4 NNE 4 6 2 3 1010.2 1010.1 0.0
30/10:00pm 26.9 28.3 17.4 56 6.0 NNE 6 7 3 4 1009.8 1009.7 0.0
30/09:30pm 27.8 29.1 17.6 53 6.4 N 7 9 4 5 1009.5 1009.4 0.0
30/09:00pm 28.5 30.0 18.0 53 6.7 N 7 9 4 5 1009.1 1009.0 0.0
30/08:30pm 28.8 30.3 18.0 52 6.9 N 7 11 4 6 1008.9 1008.8 0.0
30/08:00pm 29.3 30.6 18.4 51 7.0 N 9 13 5 7 1008.6 1008.5 0.0
30/07:30pm 29.9 30.6 18.0 48 7.6 N 11 17 6 9 1008.3 1008.2 0.0
30/07:00pm 30.8 30.8 18.2 47 8.1 N 15 20 8 11 1008.1 1008.0 0.0
30/06:30pm 32.2 31.7 17.7 42 9.3 NNW 17 24 9 13 1007.8 1007.7 0.0
30/06:00pm 34.2 32.9 14.7 31 12.1 NNE 15 22 8 12 1007.2 1007.1 0.0
30/05:30pm 35.7 33.5 13.2 26 13.7 NNE 17 26 9 14 1006.9 1006.8 0.0
30/05:00pm 36.2 33.7 13.6 25 13.9 N 19 24 10 13 1006.7 1006.6 0.0
30/04:30pm 37.6 34.8 11.5 21 15.6 NE 17 30 9 16 1006.6 1006.5 0.0
30/04:00pm 37.6 34.0 10.0 19 16.1 NE 19 33 10 18 1006.4 1006.3 0.0
30/03:30pm 37.8 34.8 12.4 22 15.4 NNE 20 26 11 14 1006.7 1006.6 0.0
30/03:00pm 37.6 36.3 13.6 24 14.8 ENE 13 20 7 11 1007.0 1006.9 0.0
30/02:30pm 37.7 37.3 13.0 23 15.1 E 7 20 4 11 1007.4 1007.3 0.0
30/02:00pm 37.0 34.5 12.4 23 14.9 ENE 17 28 9 15 1007.6 1007.5 0.0
30/01:30pm 36.6 35.8 14.0 26 14.0 NNE 11 19 6 10 1008.1 1008.0 0.0
30/01:00pm 36.1 35.5 14.7 28 13.3 NE 11 20 6 11 1008.9 1008.8 0.0
30/12:30pm 35.0 35.6 15.8 31 12.1 NE 7 13 4 7 1009.6 1009.5 0.0
30/12:00pm 34.6 35.4 16.4 33 11.6 ENE 7 17 4 9 1010.2 1010.1 0.0
30/11:30am 33.2 34.4 17.4 39 10.1 SE 7 13 4 7 1010.8 1010.7 0.0
30/11:00am 32.6 34.1 18.0 41 9.4 NW 7 15 4 8 1011.4 1011.3 0.0
30/10:30am 31.1 33.5 18.8 48 8.0 NNW 4 9 2 5 1011.7 1011.6 0.0
30/10:00am 30.8 32.3 18.8 48 7.8 N 9 15 5 8 1012.0 1011.9 0.0
30/09:30am 29.2 31.2 19.2 54 6.5 NW 7 15 4 8 1012.1 1012.0 0.0
30/09:00am 28.8 31.2 19.7 58 5.9 NNW 6 13 3 7 1012.3 1012.2 0.0
30/08:30am 27.5 30.3 19.6 62 5.1 NW 4 9 2 5 1012.1 1012.0 0.0
30/08:00am 26.3 29.3 19.2 65 4.6 WNW 2 6 1 3 1012.0 1011.9 0.0
30/07:30am 24.8 27.8 18.5 68 4.0 CALM 0 0 0 0 1011.8 1011.7 0.0
30/07:00am 22.9 25.9 18.4 76 2.8 CALM 0 0 0 0 1011.5 1011.4 0.0
30/06:30am 20.8 23.0 17.4 81 2.1 S 2 9 1 5 1011.3 1011.2 0.0
30/06:00am 20.2 22.7 17.2 83 1.8 CALM 0 9 0 5 1011.0 1010.9 0.0
30/05:30am 20.5 23.0 17.3 82 2.0 CALM 0 0 0 0 1010.6 1010.5 0.0
30/05:00am 20.6 23.2 17.4 82 2.0 CALM 0 0 0 0 1010.4 1010.3 0.0
30/04:30am 21.2 23.8 17.6 80 2.2 CALM 0 0 0 0 1010.3 1010.2 0.0
30/04:00am 20.6 23.1 17.2 81 2.1 CALM 0 0 0 0 1010.3 1010.2 0.0
30/03:30am 21.2 23.6 17.0 77 2.6 CALM 0 0 0 0 1010.1 1010.0 0.0
30/03:00am 21.7 24.4 17.7 78 2.5 CALM 0 0 0 0 1010.1 1010.0 0.0
30/02:30am 21.5 23.8 16.7 74 2.9 CALM 0 0 0 0 1010.2 1010.1 0.0
30/02:00am 22.3 24.3 15.9 67 3.9 CALM 0 0 0 0 1010.6 1010.5 0.0
30/01:30am 23.4 25.9 17.2 68 3.8 CALM 0 0 0 0 1010.8 1010.7 0.0
30/01:00am 24.9 27.6 18.6 68 4.0 NNE 2 4 1 2 1010.9 1010.8 0.0
30/12:30am 25.3 27.6 18.5 66 4.3 NNE 4 6 2 3 1011.3 1011.2 0.0
30/12:00am 25.7 28.0 18.6 65 4.5 NNE 4 6 2 3 1011.7 1011.6 0.0
 
Date/Time
CST
Temp
°C
App
Temp
°C
Dew
Point
Rel
Hum
%
Delta-T
°C
Wind Press
QNH
hPa
Press
MSL
hPa
Rain
since 9 am
mm
Dir
 
Spd
km/h
Gust
km/h
Spd
kts
Gust
kts
29/11:30pm 25.7 27.6 18.6 65 4.5 NNE 6 7 3 4 1012.0 1011.9 0.0
29/11:00pm 25.1 27.3 16.5 59 5.3 CALM 0 0 0 0 1012.1 1012.0 0.0
29/10:30pm 26.1 28.0 17.7 60 5.3 NNE 4 4 2 2 1012.0 1011.9 0.0
29/10:00pm 26.4 27.9 17.5 58 5.6 N 6 7 3 4 1011.5 1011.4 0.0
29/09:30pm 26.6 27.7 15.6 50 6.7 N 4 4 2 2 1011.5 1011.4 0.0
29/09:00pm 26.9 27.5 14.3 46 7.5 NNE 4 6 2 3 1011.2 1011.1 0.0
29/08:30pm 27.5 26.6 12.7 40 8.6 NNE 9 15 5 8 1010.8 1010.7 0.0
29/08:00pm 29.1 27.3 10.7 32 10.5 NNE 11 17 6 9 1010.3 1010.2 0.0
29/07:30pm 29.7 27.0 10.3 30 11.0 NNE 15 22 8 12 1009.6 1009.5 0.0
29/07:00pm 30.8 28.9 11.7 31 11.1 NNE 13 19 7 10 1009.2 1009.1 0.0
29/06:30pm 31.9 29.7 13.2 32 11.2 N 17 26 9 14 1008.7 1008.6 0.0
29/06:00pm 33.0 30.9 14.6 33 11.3 NNE 19 30 10 16 1008.0 1007.9 0.0
29/05:30pm 34.8 32.5 14.7 30 12.5 NNE 20 28 11 15 1007.7 1007.6 0.0
29/05:00pm 36.0 33.5 15.2 29 13.0 NNE 22 32 12 17 1007.4 1007.3 0.0
29/04:30pm 37.5 35.4 13.5 24 14.8 NNE 17 24 9 13 1007.4 1007.3 0.0
29/04:00pm 37.7 34.8 13.0 23 15.1 NE 20 30 11 16 1007.4 1007.3 0.0
29/03:30pm 38.2 35.8 12.7 21 15.6 NNE 17 32 9 17 1007.4 1007.3 0.0
29/03:00pm 38.6 36.3 11.6 20 16.3 E 15 26 8 14 1007.5 1007.4 0.0
29/02:30pm 38.7 35.5 8.4 16 17.4 ENE 15 28 8 15 1007.8 1007.7 0.0
29/02:00pm 38.4 33.8 8.1 16 17.3 E 22 32 12 17 1008.4 1008.3 0.0
29/01:30pm 38.4 35.9 8.1 16 17.3 ENE 11 26 6 14 1008.9 1008.8 0.0
29/01:00pm 37.1 34.0 10.4 20 15.7 E 17 24 9 13 1009.5 1009.4 0.0
29/12:30pm 36.0 34.3 12.3 24 14.3 NE 13 28 7 15 1010.2 1010.1 0.0
29/12:00pm 35.2 32.7 12.2 25 13.8 ENE 17 30 9 16 1011.0 1010.9 0.0
29/11:30am 33.6 33.2 15.1 33 11.5 NE 11 24 6 13 1011.4 1011.3 0.0

Other Formats:

Comma delimited format used in spreadsheet applications
http://www.bom.gov.au/fwo/IDD60801/IDD60801.94110.axf

JavaScript Object Notation format (JSON) in row-major order
http://www.bom.gov.au/fwo/IDD60801/IDD60801.94110.json